Time;durP1;ratioP1;P1;durP2;ratioP2;P2;SDS_P1;SDS_P2;PMS_P1;PMS_P2;Temp;Humidity;BMP_temperature;BMP_pressure;BME280_temperature;BME280_humidity;BME280_pressure;Samples;Min_cycle;Max_cycle;Signal;HPM_P1;HPM_P2
2021/08/05 02:45:15;;;;;;;9.50;7.40;;;19.90;99.90;;;;;;5735773;24;20894;31
2021/08/05 02:47:41;;;;;;;10.10;7.25;;;19.80;99.90;;;;;;4769883;30;20048;-80
2021/08/05 02:50:09;;;;;;;11.18;7.70;;;19.80;99.90;;;;;;4780558;30;20067;-80
2021/08/05 02:52:35;;;;;;;10.52;6.97;;;19.80;99.90;;;;;;4751940;30;20028;-79
2021/08/05 02:55:06;;;;;;;9.77;6.72;;;19.80;99.90;;;;;;4764636;30;20037;-80
2021/08/05 02:57:33;;;;;;;10.60;7.05;;;19.80;99.90;;;;;;4749235;30;20033;-79
2021/08/05 02:59:59;;;;;;;8.60;6.32;;;19.80;99.90;;;;;;4779369;30;20033;-79
2021/08/05 03:02:26;;;;;;;11.68;6.47;;;19.70;99.90;;;;;;4764522;30;20028;-79
2021/08/05 03:04:51;;;;;;;9.52;6.50;;;19.70;99.90;;;;;;4764213;30;20074;-80
2021/08/05 03:07:17;;;;;;;10.10;6.13;;;19.70;99.90;;;;;;4779497;30;20091;-81
2021/08/05 03:09:43;;;;;;;10.75;6.43;;;19.70;99.90;;;;;;4765075;30;20339;-81
2021/08/05 03:12:09;;;;;;;9.52;6.57;;;19.80;99.90;;;;;;4780193;30;20029;-81
2021/08/05 03:14:35;;;;;;;8.02;6.15;;;19.80;99.90;;;;;;4751414;30;20091;-81
2021/08/05 03:17:01;;;;;;;10.95;6.97;;;19.80;99.90;;;;;;4779384;30;20032;-80
2021/08/05 03:19:27;;;;;;;10.38;6.68;;;19.80;99.90;;;;;;4763794;30;20039;-81
2021/08/05 03:21:53;;;;;;;10.95;6.55;;;19.80;99.90;;;;;;4764776;30;20032;-81
2021/08/05 03:24:19;;;;;;;9.50;6.88;;;19.80;99.90;;;;;;4765120;30;20032;-81
2021/08/05 03:26:45;;;;;;;11.45;6.88;;;19.80;99.90;;;;;;4750300;30;20021;-80
2021/08/05 03:29:10;;;;;;;9.45;7.07;;;19.90;99.90;;;;;;4764903;30;20056;-80
2021/08/05 03:31:36;;;;;;;9.35;6.95;;;19.90;99.90;;;;;;4749508;30;20038;-80
2021/08/05 03:34:02;;;;;;;9.63;7.63;;;19.90;99.90;;;;;;4778355;30;20032;-80
2021/08/05 03:36:28;;;;;;;10.13;7.55;;;19.90;99.90;;;;;;4778740;30;20063;-80
2021/08/05 03:38:54;;;;;;;10.48;8.20;;;19.90;99.90;;;;;;4763268;30;20048;-80
2021/08/05 03:41:19;;;;;;;8.05;7.13;;;19.90;99.90;;;;;;4749928;30;20088;-80
2021/08/05 03:43:45;;;;;;;15.70;7.60;;;19.80;99.90;;;;;;4762751;30;20041;-80
2021/08/05 03:46:11;;;;;;;8.43;7.30;;;19.80;99.90;;;;;;4732961;30;20077;-81
2021/08/05 03:48:37;;;;;;;9.68;6.95;;;19.70;99.90;;;;;;4761240;30;20339;-81
2021/08/05 03:51:05;;;;;;;8.57;6.20;;;19.70;99.90;;;;;;4763733;30;20103;-80
2021/08/05 03:53:32;;;;;;;7.25;5.47;;;19.70;99.90;;;;;;4763651;30;20107;-80
2021/08/05 03:55:58;;;;;;;4.30;2.72;;;19.80;99.90;;;;;;4763318;30;20284;-79
2021/08/05 03:58:24;;;;;;;4.25;2.15;;;19.70;99.90;;;;;;4763661;30;20024;-79
2021/08/05 04:00:50;;;;;;;2.95;1.70;;;19.60;99.90;;;;;;4762819;30;20082;-78
2021/08/05 04:03:16;;;;;;;2.67;2.03;;;19.50;99.90;;;;;;4763545;30;20055;-79
2021/08/05 04:05:42;;;;;;;1.83;1.42;;;19.40;99.90;;;;;;4748739;30;20063;-79
2021/08/05 04:08:07;;;;;;;5.70;1.92;;;19.40;99.90;;;;;;4763202;30;20344;-79
2021/08/05 04:10:33;;;;;;;2.15;1.30;;;19.50;99.90;;;;;;4748062;30;20092;-79
2021/08/05 04:12:59;;;;;;;1.13;1.02;;;19.50;99.90;;;;;;4762718;30;20028;-80
2021/08/05 04:15:24;;;;;;;2.55;1.10;;;19.40;99.90;;;;;;4747019;30;20029;-80
2021/08/05 04:17:51;;;;;;;1.50;1.08;;;19.30;99.90;;;;;;4747804;30;20082;-80
2021/08/05 04:20:18;;;;;;;3.08;1.30;;;19.20;99.90;;;;;;4733791;30;20102;-80
2021/08/05 04:22:44;;;;;;;2.28;0.88;;;19.30;99.90;;;;;;4749519;30;20028;-79
2021/08/05 04:25:10;;;;;;;1.50;1.08;;;19.30;99.90;;;;;;4762723;30;20212;-79
2021/08/05 04:27:38;;;;;;;3.38;1.60;;;19.40;99.90;;;;;;4763034;30;20262;-79
2021/08/05 04:30:09;;;;;;;2.67;1.95;;;19.40;99.90;;;;;;4762596;30;20028;-79
2021/08/05 04:32:36;;;;;;;2.47;1.90;;;19.40;99.90;;;;;;4762854;30;20032;-80
2021/08/05 04:35:03;;;;;;;4.47;1.80;;;19.40;99.90;;;;;;4762894;30;20095;-79
2021/08/05 04:37:30;;;;;;;5.20;1.92;;;19.50;99.90;;;;;;4749399;30;20033;-79
2021/08/05 04:39:56;;;;;;;2.10;1.48;;;19.50;99.90;;;;;;4763165;30;20036;-79
2021/08/05 04:42:21;;;;;;;4.18;1.50;;;19.50;99.90;;;;;;4762720;30;20174;-79
2021/08/05 04:44:47;;;;;;;3.75;2.50;;;19.60;99.90;;;;;;4762825;30;20032;-80
2021/08/05 04:47:13;;;;;;;4.07;1.85;;;19.60;99.90;;;;;;4750644;30;20045;-83
2021/08/05 04:49:39;;;;;;;7.65;3.28;;;19.60;99.90;;;;;;4751405;30;20041;-82
2021/08/05 04:52:06;;;;;;;3.15;1.70;;;19.60;99.90;;;;;;4766232;30;20028;-80
2021/08/05 04:54:34;;;;;;;3.05;1.48;;;19.70;99.90;;;;;;4765402;30;20028;-83
2021/08/05 04:57:01;;;;;;;3.13;1.38;;;19.70;99.90;;;;;;4765096;30;20036;-82
2021/08/05 04:59:27;;;;;;;4.88;1.75;;;19.70;99.90;;;;;;4750791;30;20067;-82
2021/08/05 05:01:53;;;;;;;2.30;1.33;;;19.60;99.90;;;;;;4765296;30;20052;-83
2021/08/05 05:04:20;;;;;;;2.30;1.63;;;19.50;99.90;;;;;;4765365;30;20116;-83
2021/08/05 05:06:45;;;;;;;3.08;2.05;;;19.60;99.90;;;;;;4766107;30;20033;-83
2021/08/05 05:09:11;;;;;;;2.30;1.80;;;19.50;99.90;;;;;;4765545;30;20031;-82
2021/08/05 05:11:37;;;;;;;5.75;2.40;;;19.50;99.90;;;;;;4751122;30;20108;-82
2021/08/05 05:14:03;;;;;;;3.25;1.60;;;19.40;99.90;;;;;;4766292;30;20032;-82
2021/08/05 05:16:30;;;;;;;1.65;1.40;;;19.40;99.90;;;;;;4750551;30;20032;-82
2021/08/05 05:18:56;;;;;;;;;;;19.40;99.90;;;;;;4751133;30;20045;-80
2021/08/05 05:21:22;;;;;;;2.40;1.73;;;19.30;99.90;;;;;;4765682;30;19918;-82
2021/08/05 05:23:48;;;;;;;4.05;2.00;;;19.10;99.90;;;;;;4751474;30;20103;-82
2021/08/05 05:26:16;;;;;;;3.95;1.45;;;19.20;99.90;;;;;;4756205;30;20049;-82
2021/08/05 05:28:42;;;;;;;2.33;1.55;;;19.30;99.90;;;;;;4762330;30;20036;-82
2021/08/05 05:31:08;;;;;;;2.63;1.55;;;19.20;99.90;;;;;;4738649;30;20031;-82
2021/08/05 05:33:34;;;;;;;2.47;1.50;;;19.20;99.90;;;;;;4737914;30;20044;-82
2021/08/05 05:36:00;;;;;;;3.85;1.42;;;19.30;99.90;;;;;;4752433;30;20054;-83
2021/08/05 05:38:26;;;;;;;3.08;1.95;;;19.30;99.90;;;;;;4751505;30;20059;-83
2021/08/05 05:40:52;;;;;;;2.60;1.50;;;19.40;99.90;;;;;;4751737;30;20289;-83
2021/08/05 05:43:18;;;;;;;2.20;1.55;;;19.40;99.90;;;;;;4737339;30;20133;-83
2021/08/05 05:45:44;;;;;;;2.17;1.50;;;19.40;99.90;;;;;;4766688;30;20100;-83
2021/08/05 05:48:10;;;;;;;1.70;1.50;;;19.40;99.90;;;;;;4750589;30;20044;-83
2021/08/05 05:50:36;;;;;;;4.57;1.75;;;19.40;99.90;;;;;;4765799;30;20044;-83
2021/08/05 05:53:02;;;;;;;4.65;2.17;;;19.40;99.90;;;;;;4735881;30;20020;-83
2021/08/05 05:55:28;;;;;;;1.67;1.40;;;19.40;99.90;;;;;;4750217;30;20043;-83
2021/08/05 05:57:54;;;;;;;2.65;1.80;;;19.40;99.90;;;;;;4749921;30;20033;-83
2021/08/05 06:00:20;;;;;;;2.92;1.67;;;19.40;99.90;;;;;;4749813;30;20067;-83
2021/08/05 06:02:46;;;;;;;2.67;1.90;;;19.40;99.90;;;;;;4748927;30;20028;-82
2021/08/05 06:05:11;;;;;;;2.35;1.70;;;19.40;99.90;;;;;;4749264;30;20035;-81
2021/08/05 06:07:51;;;;;;;2.97;1.50;;;19.30;99.90;;;;;;4745975;30;20079;-82
2021/08/05 06:10:21;;;;;;;3.00;1.90;;;19.30;99.90;;;;;;4755875;30;20047;-80
2021/08/05 06:12:47;;;;;;;3.00;1.50;;;19.20;99.90;;;;;;4750113;30;20036;-80
2021/08/05 06:15:15;;;;;;;2.57;1.70;;;19.10;99.90;;;;;;4733376;30;20040;-79
2021/08/05 06:17:41;;;;;;;2.45;1.58;;;19.10;99.90;;;;;;4748865;30;20370;-81
2021/08/05 06:20:08;;;;;;;3.20;2.25;;;19.20;99.90;;;;;;4748154;30;20029;-80
2021/08/05 06:22:34;;;;;;;2.20;1.80;;;19.00;99.90;;;;;;4763445;30;20044;-80
2021/08/05 06:25:00;;;;;;;2.47;1.50;;;19.00;99.90;;;;;;4758042;30;20043;-80
2021/08/05 06:27:29;;;;;;;2.42;1.40;;;19.00;99.90;;;;;;4747578;30;20024;-80
2021/08/05 06:29:55;;;;;;;3.42;1.67;;;19.00;99.90;;;;;;4747959;30;20328;-80
2021/08/05 06:32:20;;;;;;;1.48;1.38;;;19.00;99.90;;;;;;4762335;30;20076;-80
2021/08/05 06:34:46;;;;;;;2.17;1.63;;;19.00;99.90;;;;;;4762498;30;20056;-80
2021/08/05 06:37:12;;;;;;;3.70;1.73;;;19.00;99.90;;;;;;4747949;30;20036;-79
2021/08/05 06:39:38;;;;;;;1.70;1.40;;;19.00;99.90;;;;;;4762508;30;20032;-80
2021/08/05 06:42:03;;;;;;;2.72;1.45;;;19.00;99.90;;;;;;4762588;30;20032;-80
2021/08/05 06:44:34;;;;;;;2.75;1.05;;;19.00;99.90;;;;;;4749348;30;20029;-80
2021/08/05 06:47:03;;;;;;;2.38;1.48;;;19.00;99.90;;;;;;4748298;30;20052;-81
2021/08/05 06:49:29;;;;;;;2.40;1.23;;;19.10;99.90;;;;;;4762823;30;20048;-82
2021/08/05 06:51:55;;;;;;;1.73;1.02;;;19.10;99.90;;;;;;4762403;30;20331;-82
2021/08/05 06:54:20;;;;;;;3.10;1.30;;;19.10;99.90;;;;;;4762421;30;20032;-82
2021/08/05 06:56:46;;;;;;;6.22;1.25;;;19.10;99.90;;;;;;4762243;30;20103;-82
2021/08/05 06:59:13;;;;;;;1.55;1.30;;;19.20;99.90;;;;;;4762119;30;20096;-82
2021/08/05 07:01:39;;;;;;;2.85;1.25;;;19.20;99.90;;;;;;4762135;30;20032;-82
2021/08/05 07:04:04;;;;;;;1.27;1.08;;;19.20;99.90;;;;;;4762076;30;20099;-83
2021/08/05 07:06:30;;;;;;;2.10;1.38;;;19.30;99.90;;;;;;4762182;30;20071;-83
2021/08/05 07:08:56;;;;;;;5.55;0.95;;;19.30;99.90;;;;;;4760769;30;20079;-83
2021/08/05 07:11:24;;;;;;;1.08;0.90;;;19.30;99.90;;;;;;4747374;30;20025;-82
2021/08/05 07:13:50;;;;;;;5.05;1.30;;;19.20;99.90;;;;;;4761815;30;20059;-82
2021/08/05 07:16:16;;;;;;;4.53;1.27;;;19.20;99.90;;;;;;4747329;30;20033;-82
2021/08/05 07:18:41;;;;;;;1.50;1.15;;;19.30;99.90;;;;;;4761338;30;20024;-81
2021/08/05 07:21:08;;;;;;;4.95;1.10;;;19.30;99.90;;;;;;4761679;30;20082;-82
2021/08/05 07:23:33;;;;;;;2.10;0.73;;;19.20;99.90;;;;;;4761616;30;20047;-82
2021/08/05 07:25:59;;;;;;;4.22;0.68;;;19.20;99.90;;;;;;4747072;30;20033;-82
2021/08/05 07:28:27;;;;;;;2.60;1.00;;;19.10;99.90;;;;;;4761235;30;20033;-83
2021/08/05 07:30:54;;;;;;;2.53;0.60;;;18.90;99.90;;;;;;4741298;30;20079;-82
2021/08/05 07:33:19;;;;;;;2.13;1.10;;;18.90;99.90;;;;;;4743503;30;20112;-82
2021/08/05 07:35:45;;;;;;;1.73;0.80;;;18.80;99.90;;;;;;4760754;30;20216;-81
2021/08/05 07:38:11;;;;;;;2.55;1.00;;;19.00;99.90;;;;;;4742973;30;20036;-82
2021/08/05 07:40:37;;;;;;;0.75;0.50;;;18.90;99.90;;;;;;4753753;30;20035;-82
2021/08/05 07:43:03;;;;;;;3.45;0.98;;;19.00;99.90;;;;;;4747595;30;20090;-82
2021/08/05 07:45:31;;;;;;;2.40;1.08;;;18.90;99.90;;;;;;4759023;30;20032;-85
2021/08/05 07:47:57;;;;;;;1.65;0.73;;;18.90;99.90;;;;;;4701882;30;20129;-85
2021/08/05 07:50:23;;;;;;;0.95;0.63;;;18.90;99.90;;;;;;4744564;30;20071;-85
2021/08/05 07:52:49;;;;;;;7.78;0.80;;;18.90;99.90;;;;;;4744798;30;20397;-85
2021/08/05 07:55:16;;;;;;;1.67;0.60;;;18.80;99.90;;;;;;4734390;30;20025;-85
2021/08/05 07:57:42;;;;;;;2.13;0.95;;;18.90;99.90;;;;;;4746715;30;20028;-85
2021/08/05 08:00:10;;;;;;;2.15;0.80;;;18.80;99.90;;;;;;4764067;30;20036;-85
2021/08/05 08:02:39;;;;;;;1.58;0.70;;;18.90;99.90;;;;;;4764870;30;20034;-85
2021/08/05 08:05:06;;;;;;;1.27;0.70;;;19.00;99.90;;;;;;4762711;30;20062;-85
2021/08/05 08:07:39;;;;;;;2.07;0.80;;;18.90;99.90;;;;;;4758172;30;20035;-85
2021/08/05 08:15:47;;;;;;;4.18;0.60;;;19.10;99.90;;;;;;4758161;30;20045;-85
2021/08/05 08:18:17;;;;;;;4.03;0.70;;;19.10;99.90;;;;;;4744633;30;20039;-86
2021/08/05 08:20:46;;;;;;;0.73;0.40;;;19.30;99.90;;;;;;4749459;30;20318;-85
2021/08/05 08:23:13;;;;;;;1.20;0.50;;;19.40;99.90;;;;;;4760896;30;20266;-85
2021/08/05 08:28:37;;;;;;;6.57;0.50;;;19.60;99.90;;;;;;4739777;30;20057;-84
2021/08/05 08:31:05;;;;;;;1.25;0.80;;;19.70;99.90;;;;;;4715839;30;20037;-85
2021/08/05 08:33:32;;;;;;;2.83;0.73;;;19.70;99.90;;;;;;4718398;30;20025;-85
2021/08/05 08:35:58;;;;;;;1.20;0.80;;;19.60;99.90;;;;;;4737481;30;20036;-85
2021/08/05 08:38:25;;;;;;;1.88;0.80;;;19.50;99.90;;;;;;4724070;30;20028;-85
2021/08/05 08:40:55;;;;;;;0.98;0.68;;;19.50;99.90;;;;;;4717962;30;20042;-85
2021/08/05 08:43:25;;;;;;;1.35;0.93;;;19.50;99.90;;;;;;4716584;30;20051;-85
2021/08/05 08:45:55;;;;;;;1.90;0.60;;;19.50;99.90;;;;;;4713202;30;20041;-85
2021/08/05 08:48:27;;;;;;;3.00;0.60;;;19.50;99.90;;;;;;4714712;30;20540;-85
2021/08/05 08:50:54;;;;;;;1.85;0.40;;;19.60;99.90;;;;;;4694435;30;20125;-84
2021/08/05 08:53:29;;;;;;;2.35;0.55;;;19.60;99.90;;;;;;4680418;30;20073;-85
2021/08/05 08:55:57;;;;;;;5.50;0.93;;;19.80;99.90;;;;;;4699509;30;20053;-84
2021/08/05 08:58:23;;;;;;;3.20;0.50;;;19.70;99.90;;;;;;4697166;30;20363;-85
2021/08/05 09:00:49;;;;;;;0.47;0.30;;;19.70;99.90;;;;;;4696376;30;20056;-85
2021/08/05 09:03:16;;;;;;;11.52;1.20;;;19.70;99.90;;;;;;4687240;30;20296;-85
2021/08/05 09:05:44;;;;;;;8.05;0.82;;;19.70;99.90;;;;;;4707823;30;20304;-86
2021/08/05 09:08:13;;;;;;;0.60;0.40;;;19.80;99.90;;;;;;4691231;30;20034;-86
2021/08/05 09:10:42;;;;;;;0.45;0.20;;;20.00;99.90;;;;;;4666670;30;20054;-85
2021/08/05 09:19:23;;;;;;;2.63;0.43;;;20.00;99.90;;;;;;4745669;30;20055;-84
2021/08/05 09:21:51;;;;;;;2.65;0.40;;;20.00;99.90;;;;;;4746035;30;20049;-85
2021/08/05 09:24:27;;;;;;;0.77;0.28;;;20.10;99.90;;;;;;4755282;30;20048;-85
2021/08/05 09:26:56;;;;;;;0.63;0.40;;;20.00;99.90;;;;;;4732859;30;20033;-85
2021/08/05 09:29:23;;;;;;;1.52;0.20;;;20.10;99.90;;;;;;4747676;30;20037;-85
2021/08/05 09:31:50;;;;;;;0.65;0.40;;;20.10;99.90;;;;;;4752238;30;20024;-84
2021/08/05 09:34:18;;;;;;;1.13;0.32;;;20.20;99.90;;;;;;4762288;30;20037;-85
2021/08/05 09:36:46;;;;;;;0.40;0.30;;;20.00;99.90;;;;;;4727522;30;20036;-85
2021/08/05 09:39:23;;;;;;;1.85;0.40;;;19.90;99.90;;;;;;4733354;30;20291;-84
2021/08/05 09:42:07;;;;;;;0.52;0.40;;;19.90;99.90;;;;;;4748118;30;20043;-85
2021/08/05 09:44:46;;;;;;;0.60;0.38;;;19.80;99.90;;;;;;4747565;30;20043;-84
2021/08/05 09:47:22;;;;;;;1.38;0.25;;;19.80;99.90;;;;;;4729268;30;20040;-85
2021/08/05 09:49:47;;;;;;;0.80;0.40;;;19.90;99.90;;;;;;4735959;30;20052;-85
2021/08/05 09:52:15;;;;;;;0.35;0.30;;;20.00;99.90;;;;;;4747448;30;20024;-85
2021/08/05 09:54:51;;;;;;;0.85;0.60;;;20.00;99.90;;;;;;4731801;30;20040;-85
2021/08/05 09:57:34;;;;;;;0.43;0.38;;;20.10;99.90;;;;;;4741763;30;20572;-85
2021/08/05 10:00:04;;;;;;;0.55;0.35;;;20.30;99.90;;;;;;4732233;30;20411;-85
2021/08/05 10:02:44;;;;;;;0.80;0.50;;;20.30;99.90;;;;;;4740564;30;20045;-85
2021/08/05 10:05:15;;;;;;;0.40;0.40;;;20.40;99.90;;;;;;4732457;30;20071;-85
2021/08/05 10:07:48;;;;;;;1.27;0.50;;;20.40;99.90;;;;;;4733532;30;20036;-85
2021/08/05 10:10:16;;;;;;;4.45;0.43;;;20.40;99.90;;;;;;4747111;30;20067;-84
2021/08/05 10:12:52;;;;;;;0.35;0.30;;;20.50;99.90;;;;;;4747710;30;20028;-84
2021/08/05 10:15:19;;;;;;;0.52;0.30;;;20.70;99.90;;;;;;4729352;30;20037;-84
2021/08/05 10:17:49;;;;;;;3.03;0.80;;;20.80;99.90;;;;;;4730470;30;20120;-84
2021/08/05 10:20:15;;;;;;;2.15;0.60;;;20.90;99.90;;;;;;4743922;30;20049;-84
2021/08/05 10:22:42;;;;;;;0.60;0.50;;;20.90;99.90;;;;;;4746518;30;20032;-84
2021/08/05 10:25:11;;;;;;;1.67;0.70;;;20.80;99.90;;;;;;4732565;30;20040;-85
2021/08/05 10:27:38;;;;;;;3.67;0.63;;;20.80;99.90;;;;;;4746632;30;20134;-84
2021/08/05 10:30:11;;;;;;;0.60;0.60;;;20.70;99.90;;;;;;4747365;30;20217;-84
2021/08/05 10:32:37;;;;;;;1.27;0.98;;;20.70;99.90;;;;;;4743904;30;20033;-85
2021/08/05 10:35:04;;;;;;;1.88;0.60;;;20.80;99.90;;;;;;4735011;30;20032;-84
2021/08/05 10:37:29;;;;;;;1.30;0.65;;;20.70;99.90;;;;;;4746920;30;20224;-84
2021/08/05 10:39:56;;;;;;;1.10;0.63;;;20.60;99.90;;;;;;4747036;30;20036;-83
2021/08/05 10:42:22;;;;;;;0.60;0.60;;;20.40;99.90;;;;;;4732664;30;20036;-85
2021/08/05 10:44:50;;;;;;;0.88;0.57;;;20.40;99.90;;;;;;4746627;30;20379;-83
2021/08/05 10:47:26;;;;;;;0.85;0.80;;;20.40;99.90;;;;;;4747187;30;20112;-84
2021/08/05 10:49:54;;;;;;;1.45;1.00;;;20.40;99.90;;;;;;4731102;30;20101;-85
2021/08/05 10:52:36;;;;;;;1.33;1.02;;;20.20;99.90;;;;;;4747789;30;20056;-85
2021/08/05 10:55:07;;;;;;;0.80;0.73;;;20.20;99.90;;;;;;4732184;30;20048;-85
2021/08/05 10:57:33;;;;;;;3.50;1.00;;;20.10;99.90;;;;;;4732142;30;20067;-85
2021/08/05 11:00:16;;;;;;;2.35;0.73;;;20.10;99.90;;;;;;4745264;30;20032;-85
2021/08/05 11:02:46;;;;;;;2.20;1.13;;;20.10;99.90;;;;;;4731750;30;20351;-85
2021/08/05 11:05:37;;;;;;;1.45;1.25;;;20.10;99.90;;;;;;4730331;30;20105;-85
2021/08/05 11:08:09;;;;;;;1.40;1.00;;;20.10;99.90;;;;;;4731495;30;20045;-85
2021/08/05 11:10:37;;;;;;;1.00;0.80;;;20.10;99.90;;;;;;4745138;30;20036;-85
2021/08/05 11:13:09;;;;;;;3.65;0.98;;;20.20;99.90;;;;;;4744169;30;20277;-85
2021/08/05 11:15:35;;;;;;;2.03;0.82;;;20.20;99.90;;;;;;4740154;30;20040;-85
2021/08/05 11:18:29;;;;;;;0.60;0.40;;;20.10;99.90;;;;;;4734599;30;20045;-84
2021/08/05 11:20:58;;;;;;;1.20;0.90;;;20.00;99.90;;;;;;4680651;30;20046;-85
2021/08/05 11:23:31;;;;;;;1.35;0.60;;;19.90;99.90;;;;;;4695534;30;20132;-85
2021/08/05 11:25:57;;;;;;;2.35;0.70;;;19.80;99.90;;;;;;4695498;30;20209;-85
2021/08/05 11:28:30;;;;;;;0.70;0.57;;;19.70;99.90;;;;;;4695450;30;20144;-85
2021/08/05 11:31:07;;;;;;;1.23;0.60;;;19.70;99.90;;;;;;4697208;30;20360;-85
2021/08/05 11:36:28;;;;;;;1.27;0.80;;;19.70;99.90;;;;;;4695273;30;20044;-85
2021/08/05 11:39:25;;;;;;;1.00;0.65;;;19.70;99.90;;;;;;4694314;30;20049;-85
2021/08/05 11:41:51;;;;;;;0.60;0.60;;;19.70;99.90;;;;;;4676137;30;20037;-85
2021/08/05 11:44:22;;;;;;;0.60;0.50;;;19.70;99.90;;;;;;4704214;30;20037;-85
2021/08/05 11:47:23;;;;;;;2.28;0.70;;;19.70;99.90;;;;;;4692442;30;20321;-85
2021/08/05 11:49:50;;;;;;;1.20;0.57;;;19.70;99.90;;;;;;4644789;30;20105;-85
2021/08/05 11:52:28;;;;;;;1.05;0.73;;;19.60;99.90;;;;;;4646624;30;20034;-85
2021/08/05 11:55:01;;;;;;;0.90;0.60;;;19.60;99.90;;;;;;4660901;30;20114;-85
2021/08/05 11:57:33;;;;;;;1.75;0.77;;;19.50;99.90;;;;;;4682415;30;20052;-84
2021/08/05 11:59:58;;;;;;;1.17;0.70;;;19.50;99.90;;;;;;4699308;30;20129;-84
2021/08/05 12:02:26;;;;;;;1.55;0.77;;;19.40;99.90;;;;;;4699347;30;20269;-84
2021/08/05 12:04:55;;;;;;;1.52;0.80;;;19.40;99.90;;;;;;4698815;30;20053;-84
2021/08/05 12:07:28;;;;;;;0.60;0.60;;;19.40;99.90;;;;;;4698603;30;20100;-85
2021/08/05 12:10:03;;;;;;;1.25;0.60;;;19.20;99.90;;;;;;4713938;30;20049;-84
2021/08/05 12:12:38;;;;;;;0.93;0.60;;;19.30;99.90;;;;;;4713262;30;20041;-84
2021/08/05 12:15:10;;;;;;;2.38;0.50;;;19.30;99.90;;;;;;4670657;30;20287;-84
2021/08/05 12:17:49;;;;;;;0.68;0.60;;;19.30;99.90;;;;;;4697495;30;20076;-85
2021/08/05 12:20:31;;;;;;;0.93;0.70;;;19.30;99.90;;;;;;4726652;30;20064;-85
2021/08/05 12:23:33;;;;;;;2.40;0.98;;;19.30;99.90;;;;;;4697470;30;20087;-85
2021/08/05 12:26:20;;;;;;;1.92;1.05;;;19.40;99.90;;;;;;4717957;30;20103;-85
2021/08/05 12:28:47;;;;;;;1.65;0.90;;;19.50;99.90;;;;;;4746390;30;20028;-85
2021/08/05 12:31:17;;;;;;;1.25;1.10;;;19.50;99.90;;;;;;4745376;30;20270;-85
2021/08/05 12:33:44;;;;;;;2.53;1.33;;;19.60;99.90;;;;;;4730578;30;20302;-85
2021/08/05 12:36:23;;;;;;;1.65;1.50;;;19.50;99.90;;;;;;4745042;30;20024;-85
2021/08/05 12:39:08;;;;;;;4.22;1.85;;;19.60;99.90;;;;;;4731286;30;20108;-84
2021/08/05 12:42:06;;;;;;;2.80;1.98;;;19.60;99.90;;;;;;4741831;30;20052;-84
2021/08/05 12:44:34;;;;;;;1.90;1.63;;;19.60;99.90;;;;;;4694564;30;20050;-84
2021/08/05 12:47:00;;;;;;;2.10;1.75;;;19.70;99.90;;;;;;4694990;30;20094;-85
2021/08/05 12:49:34;;;;;;;2.25;1.20;;;19.60;99.90;;;;;;4694560;30;20097;-85
2021/08/05 12:52:03;;;;;;;2.22;1.50;;;19.70;99.90;;;;;;4694258;30;20082;-85
2021/08/05 12:54:29;;;;;;;2.45;1.40;;;19.70;99.90;;;;;;4694372;30;20042;-85
2021/08/05 12:57:00;;;;;;;3.37;1.70;;;19.70;99.90;;;;;;4694475;30;20045;-85
2021/08/05 12:59:42;;;;;;;3.05;1.92;;;19.50;99.90;;;;;;4676729;30;20105;-85
2021/08/05 13:02:09;;;;;;;4.65;1.42;;;19.50;99.90;;;;;;4694311;30;20084;-85
2021/08/05 13:04:36;;;;;;;2.25;1.20;;;19.40;99.90;;;;;;4693708;30;20068;-85
2021/08/05 13:07:03;;;;;;;2.47;1.30;;;19.40;99.90;;;;;;4680915;30;20037;-85
2021/08/05 13:09:31;;;;;;;;;;;19.40;99.90;;;;;;4698612;30;20044;-85
2021/08/05 13:11:59;;;;;;;3.10;1.35;;;19.40;99.90;;;;;;4697891;30;20154;-85
2021/08/05 13:14:28;;;;;;;1.60;1.20;;;19.30;99.90;;;;;;4683344;30;20050;-86
2021/08/05 13:17:07;;;;;;;1.65;1.30;;;19.40;99.90;;;;;;4688479;30;20045;-84
2021/08/05 13:20:03;;;;;;;1.80;1.27;;;19.50;99.90;;;;;;4686257;30;20042;-84
2021/08/05 13:22:51;;;;;;;3.80;1.10;;;19.60;99.90;;;;;;4743815;30;20043;-86
2021/08/05 13:25:19;;;;;;;1.73;1.15;;;19.80;99.90;;;;;;4733463;30;20274;-84
2021/08/05 13:28:06;;;;;;;4.60;1.67;;;19.90;99.90;;;;;;4733885;30;20132;-84
2021/08/05 13:30:32;;;;;;;;;;;19.90;99.90;;;;;;4747101;30;20033;-83
2021/08/05 13:32:58;;;;;;;3.40;1.80;;;20.00;99.90;;;;;;4749070;30;19923;-84
2021/08/05 13:35:24;;;;;;;1.73;1.63;;;20.10;99.90;;;;;;4734400;30;20033;-82
2021/08/05 13:38:02;;;;;;;1.80;1.60;;;20.20;99.90;;;;;;4749488;30;20056;-83
2021/08/05 13:40:29;;;;;;;2.85;1.40;;;20.30;99.90;;;;;;4734419;30;20116;-83
2021/08/05 13:42:55;;;;;;;3.28;1.77;;;20.30;99.90;;;;;;4750174;30;20040;-82
2021/08/05 13:45:21;;;;;;;1.80;1.60;;;20.20;99.90;;;;;;4736671;30;20334;-82
2021/08/05 13:47:47;;;;;;;1.73;1.60;;;20.20;99.90;;;;;;4735776;30;20262;-81
2021/08/05 13:50:25;;;;;;;1.88;1.77;;;20.30;99.90;;;;;;4750626;30;20059;-81
2021/08/05 13:52:52;;;;;;;2.97;1.88;;;20.30;99.90;;;;;;4751649;30;20044;-82
2021/08/05 13:55:20;;;;;;;1.58;1.48;;;20.30;99.90;;;;;;4766857;30;20024;-81
2021/08/05 13:57:46;;;;;;;2.55;2.00;;;20.30;99.90;;;;;;4753868;30;20063;-82
2021/08/05 14:00:12;;;;;;;2.10;1.90;;;20.30;99.90;;;;;;4752455;30;20058;-82
2021/08/05 14:02:41;;;;;;;1.63;1.30;;;20.40;99.90;;;;;;4766236;30;20107;-82
2021/08/05 14:05:07;;;;;;;3.03;1.60;;;20.50;99.90;;;;;;4751204;30;20176;-82
2021/08/05 14:07:33;;;;;;;2.30;1.52;;;20.50;99.90;;;;;;4734811;30;20052;-82
2021/08/05 14:09:59;;;;;;;2.08;1.25;;;20.40;99.90;;;;;;4749347;30;20028;-81
2021/08/05 14:12:26;;;;;;;1.95;1.42;;;20.40;99.90;;;;;;4731816;30;20048;-82
2021/08/05 14:14:52;;;;;;;1.63;1.52;;;20.50;99.90;;;;;;4761864;30;20105;-83
2021/08/05 14:17:18;;;;;;;3.72;1.60;;;20.70;99.90;;;;;;4748695;30;20078;-82
2021/08/05 14:19:45;;;;;;;2.17;1.58;;;20.70;99.90;;;;;;4734248;30;20032;-83
2021/08/05 14:22:11;;;;;;;2.42;1.50;;;20.80;99.90;;;;;;4748622;30;20041;-82
2021/08/05 14:24:37;;;;;;;1.70;1.60;;;21.00;99.90;;;;;;4747920;30;20047;-84
2021/08/05 14:27:04;;;;;;;2.72;1.50;;;21.00;99.80;;;;;;4748428;30;20029;-82
2021/08/05 14:29:30;;;;;;;;;;;21.00;99.50;;;;;;4751354;30;20114;-84
2021/08/05 14:31:56;;;;;;;4.87;1.60;;;20.90;99.10;;;;;;4751945;30;19914;-84
2021/08/05 14:34:25;;;;;;;3.35;1.10;;;20.80;99.80;;;;;;4749690;30;20072;-84
2021/08/05 14:36:50;;;;;;;1.40;1.30;;;20.80;98.70;;;;;;4752308;30;20039;-85
2021/08/05 14:39:20;;;;;;;1.30;1.20;;;20.70;99.20;;;;;;4748269;30;20028;-83
2021/08/05 14:41:46;;;;;;;2.33;1.10;;;20.60;99.60;;;;;;4732213;30;20055;-84
2021/08/05 14:44:13;;;;;;;1.90;1.33;;;20.40;99.90;;;;;;4747182;30;20078;-84
2021/08/05 14:46:43;;;;;;;3.38;1.27;;;20.30;99.90;;;;;;4746097;30;20062;-84
2021/08/05 14:49:10;;;;;;;1.23;1.13;;;20.20;99.90;;;;;;4743540;30;20324;-85
2021/08/05 14:51:36;;;;;;;2.38;1.42;;;20.10;99.90;;;;;;4746213;30;20027;-85
2021/08/05 14:54:02;;;;;;;1.85;1.45;;;20.10;99.90;;;;;;4731568;30;20064;-85
2021/08/05 14:56:28;;;;;;;2.13;1.52;;;20.20;99.90;;;;;;4731442;30;20033;-85
2021/08/05 14:58:53;;;;;;;2.17;1.70;;;20.10;99.90;;;;;;4745947;30;20123;-85
2021/08/05 15:01:22;;;;;;;3.13;1.92;;;20.00;99.90;;;;;;4731116;30;20028;-85
2021/08/05 15:03:48;;;;;;;5.10;1.70;;;20.00;99.90;;;;;;4745664;30;20096;-85
2021/08/05 15:06:14;;;;;;;3.75;1.48;;;19.90;99.90;;;;;;4731781;30;20051;-86
2021/08/05 15:09:01;;;;;;;2.90;1.85;;;19.90;99.90;;;;;;4743521;30;20100;-85
2021/08/05 15:11:27;;;;;;;2.83;2.25;;;19.80;99.90;;;;;;4699191;30;20049;-85
2021/08/05 15:13:53;;;;;;;1.88;1.65;;;19.90;99.90;;;;;;4713269;30;20104;-86
2021/08/05 15:16:19;;;;;;;2.20;2.00;;;19.90;99.90;;;;;;4693708;30;20037;-85
2021/08/05 15:18:45;;;;;;;3.15;2.28;;;19.80;99.90;;;;;;4683803;30;20118;-85
2021/08/05 15:21:11;;;;;;;6.70;2.03;;;19.80;99.90;;;;;;4699108;30;20108;-85
2021/08/05 15:23:37;;;;;;;2.97;2.00;;;19.70;99.90;;;;;;4709972;30;20125;-85
2021/08/05 15:26:04;;;;;;;1.92;1.83;;;19.70;99.90;;;;;;4696324;30;20116;-86
2021/08/05 15:28:31;;;;;;;2.67;2.20;;;19.70;99.90;;;;;;4707335;30;20391;-86
2021/08/05 15:30:57;;;;;;;2.05;1.65;;;19.80;99.90;;;;;;4715646;30;20029;-86
2021/08/05 15:33:28;;;;;;;4.20;2.00;;;19.80;99.90;;;;;;4701732;30;20260;-85
2021/08/05 15:35:56;;;;;;;2.10;1.75;;;19.90;99.90;;;;;;4721870;30;20048;-84
2021/08/05 15:38:22;;;;;;;3.50;2.10;;;20.00;99.90;;;;;;4702029;30;20032;-84
2021/08/05 15:40:48;;;;;;;2.25;1.80;;;20.10;99.90;;;;;;4701317;30;20146;-85
2021/08/05 15:43:14;;;;;;;3.30;2.08;;;20.10;99.90;;;;;;4715501;30;20029;-84
2021/08/05 15:45:40;;;;;;;2.47;1.80;;;20.10;99.90;;;;;;4708696;30;20029;-85
2021/08/05 15:48:07;;;;;;;2.67;2.40;;;20.20;99.90;;;;;;4679688;30;20505;-84
2021/08/05 15:50:34;;;;;;;3.35;2.25;;;20.20;99.90;;;;;;4692951;30;20049;-85
2021/08/05 15:53:00;;;;;;;;;;;20.30;99.90;;;;;;4690664;30;20150;-83
2021/08/05 15:55:27;;;;;;;3.40;2.30;;;20.40;99.90;;;;;;4714934;30;19918;-83
2021/08/05 15:57:52;;;;;;;3.83;2.05;;;20.40;99.90;;;;;;4702015;30;20041;-84